createdAt,value
2018-09-16T00:01:47.852Z,6.43
2018-09-16T00:04:15.288Z,2.90
2018-09-16T00:06:42.843Z,6.33
2018-09-16T00:09:11.080Z,6.10
2018-09-16T00:11:38.887Z,3.03
2018-09-16T00:14:06.301Z,2.53
2018-09-16T00:16:33.770Z,0.97
2018-09-16T00:19:01.181Z,1.83
2018-09-16T00:21:28.625Z,5.27
2018-09-16T00:23:56.029Z,3.07
2018-09-16T00:26:23.433Z,3.90
2018-09-16T00:28:50.868Z,4.30
2018-09-16T00:31:18.313Z,5.57
2018-09-16T00:33:45.748Z,2.80
2018-09-16T00:36:13.172Z,2.37
2018-09-16T00:38:40.558Z,2.90
2018-09-16T00:41:08.006Z,4.83
2018-09-16T00:43:35.646Z,2.37
2018-09-16T00:46:03.089Z,1.50
2018-09-16T00:48:30.482Z,3.17
2018-09-16T00:50:57.888Z,5.70
2018-09-16T00:53:25.293Z,4.00
2018-09-16T00:55:52.800Z,1.80
2018-09-16T00:58:20.664Z,11.83
2018-09-16T01:00:54.597Z,3.90
2018-09-16T01:03:22.266Z,3.87
2018-09-16T01:05:55.531Z,3.13
2018-09-16T01:08:23.009Z,4.20
2018-09-16T01:10:50.584Z,4.50
2018-09-16T01:13:17.979Z,5.07
2018-09-16T01:15:45.796Z,4.93
2018-09-16T01:18:13.220Z,5.00
2018-09-16T01:20:40.649Z,2.53
2018-09-16T01:23:08.109Z,3.17
2018-09-16T01:25:35.532Z,2.43
2018-09-16T01:28:02.938Z,2.30
2018-09-16T01:30:30.384Z,2.57
2018-09-16T01:32:57.765Z,4.73
2018-09-16T01:35:25.192Z,4.83
2018-09-16T01:37:58.386Z,5.67
2018-09-16T01:40:25.781Z,1.87
2018-09-16T01:45:26.146Z,4.00
2018-09-16T01:47:53.568Z,4.10
2018-09-16T01:50:21.012Z,5.83
2018-09-16T01:52:48.479Z,4.47
2018-09-16T01:55:16.512Z,14.17
2018-09-16T01:57:43.913Z,6.67
2018-09-16T02:00:11.390Z,7.47
2018-09-16T02:02:38.862Z,6.10
2018-09-16T02:05:06.285Z,1.33
2018-09-16T02:07:33.671Z,2.97
2018-09-16T02:10:01.128Z,5.23
2018-09-16T02:12:28.525Z,5.17
2018-09-16T02:14:55.933Z,7.23
2018-09-16T02:17:23.618Z,7.73
2018-09-16T02:19:51.042Z,2.33
2018-09-16T02:22:18.421Z,4.17
2018-09-16T02:24:45.891Z,5.63
2018-09-16T02:27:13.289Z,7.07
2018-09-16T02:29:40.741Z,3.87
2018-09-16T02:32:08.226Z,4.53
2018-09-16T02:34:35.636Z,5.30
2018-09-16T02:37:03.122Z,6.77
2018-09-16T02:39:30.576Z,3.17
2018-09-16T02:41:57.936Z,2.07
2018-09-16T02:44:25.433Z,2.97
2018-09-16T02:46:52.829Z,6.20
2018-09-16T02:49:20.213Z,4.70
2018-09-16T02:51:47.613Z,3.47
2018-09-16T02:54:15.153Z,3.90
2018-09-16T02:56:42.561Z,5.93
2018-09-16T02:59:09.978Z,4.77
2018-09-16T03:01:37.440Z,4.33
2018-09-16T03:04:04.953Z,8.40
2018-09-16T03:06:33.162Z,6.87
2018-09-16T03:09:01.369Z,2.77
2018-09-16T03:11:29.362Z,4.87
2018-09-16T03:13:56.746Z,7.20
2018-09-16T03:16:24.136Z,2.90
2018-09-16T03:18:51.676Z,4.00
2018-09-16T03:21:19.241Z,5.73
2018-09-16T03:23:46.625Z,4.63
2018-09-16T03:26:14.024Z,3.53
2018-09-16T03:28:41.421Z,2.20
2018-09-16T03:31:08.857Z,3.87
2018-09-16T03:33:36.252Z,6.67
2018-09-16T03:36:03.773Z,2.43
2018-09-16T03:38:31.210Z,5.10
2018-09-16T03:40:58.589Z,3.87
2018-09-16T03:43:26.024Z,5.13
2018-09-16T03:45:53.448Z,5.53
2018-09-16T03:48:20.885Z,4.57
2018-09-16T03:50:48.615Z,7.10
2018-09-16T03:53:15.973Z,3.23
2018-09-16T03:55:43.369Z,6.27
2018-09-16T03:58:10.773Z,7.60
2018-09-16T04:00:38.182Z,2.27
2018-09-16T04:03:05.732Z,4.60
2018-09-16T04:05:33.144Z,2.70
2018-09-16T04:08:00.577Z,3.13
2018-09-16T04:10:27.948Z,2.53
2018-09-16T04:12:55.354Z,2.37
2018-09-16T04:15:22.772Z,4.37
2018-09-16T04:17:50.168Z,4.80
2018-09-16T04:20:17.622Z,2.93
2018-09-16T04:22:45.057Z,4.67
2018-09-16T04:25:12.469Z,4.10
2018-09-16T04:27:39.883Z,1.40
2018-09-16T04:30:07.455Z,2.50
2018-09-16T04:32:35.265Z,4.03
2018-09-16T04:35:02.705Z,2.50
2018-09-16T04:37:30.098Z,0.97
2018-09-16T04:39:57.559Z,2.73
2018-09-16T04:42:24.952Z,4.23
2018-09-16T04:44:52.394Z,3.80
2018-09-16T04:47:19.842Z,4.23
2018-09-16T04:49:47.271Z,2.57
2018-09-16T04:52:14.638Z,1.97
2018-09-16T04:54:42.113Z,4.00
2018-09-16T04:57:09.513Z,4.50
2018-09-16T04:59:36.949Z,6.77
2018-09-16T05:02:04.464Z,3.63
2018-09-16T05:04:31.910Z,2.10
2018-09-16T05:06:59.313Z,9.23
2018-09-16T05:09:26.725Z,2.43
2018-09-16T05:11:54.098Z,1.80
2018-09-16T05:14:21.598Z,2.13
2018-09-16T05:16:49.101Z,3.87
2018-09-16T05:19:16.492Z,3.47
2018-09-16T05:21:43.886Z,3.47
2018-09-16T05:24:11.314Z,1.83
2018-09-16T05:26:38.761Z,2.23
2018-09-16T05:29:06.144Z,2.40
2018-09-16T05:31:33.649Z,3.73
2018-09-16T05:34:01.189Z,2.03
2018-09-16T05:36:28.571Z,6.57
2018-09-16T05:38:56.020Z,2.80
2018-09-16T05:41:23.418Z,2.20
2018-09-16T05:43:50.812Z,1.80
2018-09-16T05:46:18.273Z,5.80
2018-09-16T05:48:45.903Z,2.40
2018-09-16T05:51:13.633Z,2.30
2018-09-16T05:53:41.048Z,1.40
2018-09-16T05:56:08.617Z,3.60
2018-09-16T05:58:36.061Z,6.63
2018-09-16T06:01:03.468Z,3.87
2018-09-16T06:03:30.908Z,6.43
2018-09-16T06:05:58.329Z,3.73
2018-09-16T06:08:25.744Z,2.43
2018-09-16T06:10:53.207Z,5.60
2018-09-16T06:13:20.666Z,8.23
2018-09-16T06:15:48.242Z,9.20
2018-09-16T06:18:15.699Z,14.83
2018-09-16T06:20:43.187Z,9.40
2018-09-16T06:23:10.765Z,14.67
2018-09-16T06:25:38.204Z,17.27
2018-09-16T06:28:05.882Z,12.30
2018-09-16T06:30:33.336Z,20.00
2018-09-16T06:33:00.820Z,17.03
2018-09-16T06:35:28.322Z,26.10
2018-09-16T06:37:55.748Z,25.87
2018-09-16T06:40:23.134Z,21.53
2018-09-16T06:42:50.768Z,18.17
2018-09-16T06:45:18.397Z,15.97
2018-09-16T06:47:45.818Z,19.50
2018-09-16T06:50:13.280Z,22.27
2018-09-16T06:52:40.741Z,13.17
2018-09-16T06:55:08.267Z,17.63
2018-09-16T06:57:36.133Z,16.07
2018-09-16T07:00:04.392Z,21.60
2018-09-16T07:02:32.130Z,12.63
2018-09-16T07:04:59.704Z,11.87
2018-09-16T07:07:27.667Z,11.53
2018-09-16T07:10:02.506Z,9.50
2018-09-16T07:12:30.240Z,7.27
2018-09-16T07:14:57.715Z,4.70
2018-09-16T07:17:25.496Z,8.83
2018-09-16T07:20:04.452Z,5.37
2018-09-16T07:22:32.032Z,5.73
2018-09-16T07:24:59.991Z,6.27
2018-09-16T07:27:27.510Z,3.70
2018-09-16T07:32:40.083Z,2.73
2018-09-16T07:35:07.851Z,4.43
2018-09-16T07:37:35.918Z,6.17
2018-09-16T07:40:03.650Z,4.60
2018-09-16T07:42:31.287Z,4.83
2018-09-16T07:44:59.448Z,3.03
2018-09-16T07:47:27.374Z,6.33
2018-09-16T07:49:55.330Z,1.70
2018-09-16T07:52:23.193Z,3.27
2018-09-16T07:54:51.353Z,3.57
2018-09-16T07:57:23.488Z,5.53
2018-09-16T07:59:51.989Z,4.87
2018-09-16T08:02:19.847Z,3.40
2018-09-16T08:04:48.700Z,5.47
2018-09-16T08:07:18.512Z,3.10
2018-09-16T08:12:51.130Z,2.83
2018-09-16T08:15:21.130Z,2.20
2018-09-16T08:17:58.954Z,5.73
2018-09-16T08:23:25.671Z,5.17
2018-09-16T08:25:56.163Z,3.37
2018-09-16T08:28:25.291Z,1.97
2018-09-16T08:30:59.856Z,4.13
2018-09-16T08:42:16.073Z,2.53
2018-09-16T08:48:25.829Z,3.33
2018-09-16T08:50:55.491Z,1.90
2018-09-16T08:56:26.991Z,3.20
2018-09-16T08:58:54.896Z,0.93
2018-09-16T09:01:23.605Z,2.23
2018-09-16T09:03:51.880Z,3.40
2018-09-16T09:06:20.304Z,2.83
2018-09-16T09:08:48.420Z,3.73
2018-09-16T09:11:16.738Z,3.13
2018-09-16T09:13:45.949Z,4.63
2018-09-16T09:16:15.670Z,3.43
2018-09-16T09:18:46.040Z,2.70
2018-09-16T09:21:16.015Z,2.23
2018-09-16T09:27:02.923Z,2.00
2018-09-16T09:29:33.173Z,6.27
2018-09-16T09:37:13.329Z,1.83
2018-09-16T09:39:44.579Z,1.87
2018-09-16T09:42:24.431Z,3.73
2018-09-16T09:45:10.107Z,1.63
2018-09-16T09:47:59.469Z,4.43
2018-09-16T09:50:30.234Z,3.70
2018-09-16T09:52:59.815Z,2.97
2018-09-16T09:55:28.505Z,4.87
2018-09-16T09:58:07.428Z,3.17
2018-09-16T10:00:43.076Z,2.17
2018-09-16T10:03:19.134Z,3.87
2018-09-16T10:05:50.484Z,2.33
2018-09-16T10:11:39.207Z,1.53
2018-09-16T10:14:11.974Z,2.23
2018-09-16T10:16:54.322Z,3.53
2018-09-16T10:56:07.796Z,2.37
2018-09-16T10:58:35.870Z,6.17
2018-09-16T11:01:04.011Z,3.20
2018-09-16T11:03:31.735Z,5.30
2018-09-16T11:06:01.572Z,2.37
2018-09-16T11:08:30.299Z,2.20
2018-09-16T11:10:58.780Z,3.47
2018-09-16T11:13:26.533Z,2.17
2018-09-16T11:15:53.963Z,3.00
2018-09-16T11:18:21.396Z,4.83
2018-09-16T11:20:48.893Z,3.07
2018-09-16T11:23:17.157Z,2.60
2018-09-16T11:25:50.764Z,3.60
2018-09-16T11:28:18.293Z,4.07
2018-09-16T11:30:46.055Z,4.23
2018-09-16T11:33:13.860Z,6.90
2018-09-16T11:35:42.118Z,4.60
2018-09-16T11:38:13.797Z,2.07
2018-09-16T11:40:43.151Z,3.50
2018-09-16T11:43:10.715Z,3.33
2018-09-16T11:45:38.262Z,2.40
2018-09-16T11:48:06.227Z,1.57
2018-09-16T11:50:33.953Z,4.87
2018-09-16T11:53:01.469Z,1.50
2018-09-16T11:55:28.993Z,1.23
2018-09-16T11:57:56.647Z,2.77
2018-09-16T12:00:25.003Z,3.80
2018-09-16T12:02:52.535Z,1.43
2018-09-16T12:05:21.110Z,1.97
2018-09-16T12:07:48.630Z,2.40
2018-09-16T12:10:16.072Z,3.30
2018-09-16T12:12:44.685Z,1.43
2018-09-16T12:15:12.213Z,1.70
2018-09-16T12:17:39.727Z,2.57
2018-09-16T12:20:08.719Z,3.77
2018-09-16T12:22:38.468Z,1.63
2018-09-16T12:25:13.946Z,2.30
2018-09-16T12:27:41.562Z,3.70
2018-09-16T12:34:01.858Z,4.10
2018-09-16T14:00:47.862Z,2.57
2018-09-16T14:03:18.702Z,2.80
2018-09-16T14:08:41.151Z,0.97
2018-09-16T14:17:38.301Z,1.97
2018-09-16T14:20:49.915Z,1.17
2018-09-16T14:39:46.271Z,3.33
2018-09-16T14:42:25.497Z,3.13
2018-09-16T14:49:20.726Z,3.03
2018-09-16T14:51:49.577Z,3.17
2018-09-16T14:54:21.729Z,1.83
2018-09-16T14:57:56.526Z,2.93
2018-09-16T15:00:31.969Z,3.50
2018-09-16T15:03:10.997Z,1.60
2018-09-16T15:05:40.400Z,2.60
2018-09-16T15:08:14.311Z,2.33
2018-09-16T15:24:45.915Z,5.60
2018-09-16T15:30:38.047Z,2.73
2018-09-16T15:33:08.165Z,3.23
2018-09-16T15:35:38.388Z,2.33
2018-09-16T15:38:08.542Z,1.67
2018-09-16T15:45:40.867Z,2.53
2018-09-16T15:48:11.758Z,3.60
2018-09-16T15:56:32.497Z,3.13
2018-09-16T16:12:52.392Z,2.27
2018-09-16T16:48:16.173Z,3.87
2018-09-16T16:50:43.622Z,2.90
2018-09-16T16:53:11.002Z,5.40
2018-09-16T16:55:38.408Z,2.20
2018-09-16T16:58:05.942Z,3.03
2018-09-16T17:00:33.369Z,4.03
2018-09-16T17:03:00.768Z,4.27
2018-09-16T17:05:28.206Z,3.93
2018-09-16T17:07:55.616Z,3.67
2018-09-16T17:10:23.153Z,6.00
2018-09-16T17:12:50.529Z,3.40
2018-09-16T17:15:17.990Z,3.10
2018-09-16T17:17:45.372Z,3.63
2018-09-16T17:20:12.765Z,4.33
2018-09-16T17:22:40.179Z,2.23
2018-09-16T17:25:07.617Z,2.77
2018-09-16T17:27:35.031Z,4.67
2018-09-16T17:30:02.455Z,1.93
2018-09-16T17:32:29.904Z,3.17
2018-09-16T17:34:57.329Z,2.53
2018-09-16T17:37:24.735Z,6.00
2018-09-16T17:39:52.132Z,4.97
2018-09-16T17:42:19.549Z,2.17
2018-09-16T17:44:46.919Z,5.00
2018-09-16T17:47:14.279Z,4.30
2018-09-16T17:49:41.766Z,4.73
2018-09-16T17:52:09.160Z,3.83
2018-09-16T17:54:36.565Z,4.50
2018-09-16T17:57:04.076Z,4.33
2018-09-16T17:59:32.021Z,3.33
2018-09-16T18:01:59.425Z,3.83
2018-09-16T18:04:26.860Z,3.90
2018-09-16T18:06:54.325Z,6.00
2018-09-16T18:09:21.744Z,4.20
2018-09-16T18:11:49.164Z,4.60
2018-09-16T18:14:16.540Z,5.83
2018-09-16T18:16:44.047Z,3.93
2018-09-16T18:19:11.428Z,4.77
2018-09-16T18:21:38.857Z,3.40
2018-09-16T18:24:06.285Z,6.60
2018-09-16T18:26:33.688Z,5.23
2018-09-16T18:29:01.062Z,8.60
2018-09-16T18:31:28.486Z,6.57
2018-09-16T18:33:55.878Z,5.67
2018-09-16T18:36:23.450Z,3.90
2018-09-16T18:38:50.788Z,7.53
2018-09-16T18:41:18.316Z,4.10
2018-09-16T18:43:45.708Z,4.73
2018-09-16T18:46:13.206Z,4.70
2018-09-16T18:48:40.623Z,5.33
2018-09-16T18:51:08.009Z,4.77
2018-09-16T18:53:35.433Z,6.40
2018-09-16T18:56:02.831Z,3.53
2018-09-16T18:58:30.232Z,6.13
2018-09-16T19:00:57.632Z,10.17
2018-09-16T19:03:25.071Z,4.37
2018-09-16T19:05:52.472Z,5.67
2018-09-16T19:08:19.888Z,7.83
2018-09-16T19:10:47.352Z,4.33
2018-09-16T19:13:14.779Z,6.13
2018-09-16T19:15:42.238Z,4.27
2018-09-16T19:18:09.655Z,4.20
2018-09-16T19:20:37.780Z,4.67
2018-09-16T19:23:05.293Z,7.50
2018-09-16T19:25:32.863Z,5.80
2018-09-16T19:28:00.283Z,7.43
2018-09-16T19:30:27.712Z,9.07
2018-09-16T19:32:55.157Z,3.27
2018-09-16T19:35:22.697Z,7.33
2018-09-16T19:37:50.123Z,5.47
2018-09-16T19:40:17.554Z,7.17
2018-09-16T19:42:45.004Z,7.97
2018-09-16T19:45:12.469Z,8.83
2018-09-16T19:47:39.865Z,5.73
2018-09-16T19:50:07.349Z,4.53
2018-09-16T19:52:34.756Z,6.03
2018-09-16T19:55:02.221Z,5.67
2018-09-16T19:57:29.705Z,8.23
2018-09-16T19:59:57.189Z,6.57
2018-09-16T20:02:24.722Z,3.97
2018-09-16T20:04:52.290Z,7.27
2018-09-16T20:07:19.785Z,8.20
2018-09-16T20:09:47.422Z,5.13
2018-09-16T20:12:14.842Z,6.83
2018-09-16T20:14:42.244Z,7.00
2018-09-16T20:17:09.687Z,8.17
2018-09-16T20:19:37.066Z,4.60
2018-09-16T20:22:06.826Z,5.17
2018-09-16T20:24:34.240Z,7.47
2018-09-16T20:27:01.705Z,6.90
2018-09-16T20:29:29.121Z,7.60
2018-09-16T20:31:56.564Z,7.77
2018-09-16T20:34:23.945Z,5.20
2018-09-16T20:36:51.393Z,5.97
2018-09-16T20:39:18.955Z,11.27
2018-09-16T20:41:46.369Z,7.47
2018-09-16T20:44:13.770Z,7.63
2018-09-16T20:46:41.217Z,7.83
2018-09-16T20:49:08.659Z,5.07
2018-09-16T20:51:36.065Z,6.47
2018-09-16T20:54:03.443Z,4.80
2018-09-16T20:56:30.872Z,6.30
2018-09-16T20:58:58.324Z,6.70
2018-09-16T21:01:26.414Z,6.07
2018-09-16T21:03:53.882Z,7.03
2018-09-16T21:06:21.344Z,6.93
2018-09-16T21:08:49.062Z,16.10
2018-09-16T21:11:17.680Z,6.30
2018-09-16T21:13:45.321Z,4.77
2018-09-16T21:16:12.746Z,4.33
2018-09-16T21:18:40.200Z,7.80
2018-09-16T21:21:07.601Z,8.43
2018-09-16T21:23:35.093Z,5.67
2018-09-16T21:26:02.543Z,4.43
2018-09-16T21:28:29.927Z,3.83
2018-09-16T21:30:57.377Z,4.03
2018-09-16T21:33:24.804Z,5.50
2018-09-16T21:35:52.213Z,4.33
2018-09-16T21:38:19.598Z,5.10
2018-09-16T21:40:47.011Z,7.23
2018-09-16T21:43:14.515Z,4.20
2018-09-16T21:45:41.985Z,6.07
2018-09-16T21:48:09.396Z,6.53
2018-09-16T21:50:36.812Z,4.47
2018-09-16T21:53:04.549Z,7.73
2018-09-16T21:55:31.982Z,6.03
2018-09-16T21:57:59.401Z,6.37
2018-09-16T22:00:26.844Z,5.53
2018-09-16T22:02:54.288Z,5.43
2018-09-16T22:05:21.917Z,4.00
2018-09-16T22:07:49.626Z,6.33
2018-09-16T22:10:17.113Z,10.93
2018-09-16T22:12:44.560Z,6.67
2018-09-16T22:15:11.995Z,9.07
2018-09-16T22:17:39.464Z,10.70
2018-09-16T22:20:07.105Z,9.73
2018-09-16T22:22:34.546Z,10.33
2018-09-16T22:25:01.992Z,9.20
2018-09-16T22:27:29.429Z,6.53
2018-09-16T22:29:56.833Z,6.43
2018-09-16T22:32:24.298Z,6.30
2018-09-16T22:34:51.735Z,9.63
2018-09-16T22:37:19.138Z,8.27
2018-09-16T22:39:46.608Z,6.27
2018-09-16T22:42:14.044Z,6.63
2018-09-16T22:44:41.516Z,7.90
2018-09-16T22:47:08.925Z,5.53
2018-09-16T22:49:36.324Z,9.43
2018-09-16T22:52:03.785Z,7.83
2018-09-16T22:54:31.213Z,10.60
2018-09-16T22:56:58.790Z,5.90
2018-09-16T22:59:26.219Z,8.23
2018-09-16T23:01:53.656Z,8.67
2018-09-16T23:04:21.066Z,6.13
2018-09-16T23:06:48.532Z,6.60
2018-09-16T23:09:15.966Z,7.13
2018-09-16T23:11:44.376Z,5.40
2018-09-16T23:14:11.821Z,8.47
2018-09-16T23:16:39.883Z,9.53
2018-09-16T23:19:07.316Z,6.70
2018-09-16T23:21:34.974Z,8.87
2018-09-16T23:24:02.486Z,8.27
2018-09-16T23:26:29.953Z,11.33
2018-09-16T23:28:57.501Z,7.37
2018-09-16T23:31:25.005Z,9.63
2018-09-16T23:33:52.428Z,9.20
2018-09-16T23:36:19.876Z,5.97
2018-09-16T23:38:47.321Z,8.63
2018-09-16T23:41:15.064Z,10.03
2018-09-16T23:43:42.577Z,7.77
2018-09-16T23:46:09.963Z,9.83
2018-09-16T23:48:37.352Z,9.00
2018-09-16T23:51:04.814Z,8.73
2018-09-16T23:53:32.282Z,10.50
2018-09-16T23:55:59.696Z,10.47
2018-09-16T23:58:27.180Z,10.83
